| time (UTC) | temp C | wind direction | speed KPH | gust KPH | rain 1hr cm | rain 24hr cm | rain mn cm | humidity % | barometer mb |
| 20260503200536 | 18 | 252 | 20.9 | 27.4 | 0.00 | 0.00 | 0.00 | 69 | 1014.1 |
| 20260503200043 | 18 | 252 | 22.5 | 27.4 | 0.00 | 0.00 | 0.00 | 71 | 1014.2 |
| 20260503195535 | 18 | 257 | 20.9 | 29.0 | 0.00 | 0.00 | 0.00 | 71 | 1014.2 |
| 20260503195037 | 18 | 253 | 20.9 | 29.0 | 0.00 | 0.00 | 0.00 | 72 | 1014.3 |
| 20260503194554 | 18 | 251 | 24.1 | 29.0 | 0.00 | 0.00 | 0.00 | 73 | 1014.4 |
| 20260503194037 | 18 | 261 | 22.5 | 27.4 | 0.00 | 0.00 | 0.00 | 71 | 1014.4 |
| 20260503193540 | 18 | 250 | 22.5 | 25.7 | 0.00 | 0.00 | 0.00 | 70 | 1014.6 |
| 20260503193051 | 18 | 258 | 22.5 | 25.7 | 0.00 | 0.00 | 0.00 | 70 | 1014.7 |
| 20260503192540 | 18 | 257 | 20.9 | 24.1 | 0.00 | 0.00 | 0.00 | 70 | 1014.7 |
| 20260503192038 | 18 | 259 | 19.3 | 24.1 | 0.00 | 0.00 | 0.00 | 72 | 1014.7 |
| 20260503191547 | 18 | 258 | 19.3 | 24.1 | 0.00 | 0.00 | 0.00 | 73 | 1014.8 |
| 20260503191043 | 18 | 262 | 19.3 | 22.5 | 0.00 | 0.00 | 0.00 | 71 | 1014.9 |
| 20260503190541 | 18 | 262 | 17.7 | 22.5 | 0.00 | 0.00 | 0.00 | 72 | 1014.9 |
| 20260503190049 | 18 | 257 | 16.1 | 22.5 | 0.00 | 0.00 | 0.00 | 72 | 1015.0 |
| 20260503185540 | 17 | 260 | 17.7 | 24.1 | 0.00 | 0.00 | 0.00 | 71 | 1015.0 |
| 20260503185040 | 17 | 257 | 17.7 | 24.1 | 0.00 | 0.00 | 0.00 | 73 | 1015.0 |
| 20260503184544 | 17 | 240 | 19.3 | 24.1 | 0.00 | 0.00 | 0.00 | 72 | 1015.1 |
| 20260503184040 | 17 | 254 | 19.3 | 24.1 | 0.00 | 0.00 | 0.00 | 73 | 1015.1 |
| 20260503183540 | 17 | 261 | 20.9 | 24.1 | 0.00 | 0.00 | 0.00 | 71 | 1015.1 |
| 20260503183047 | 17 | 252 | 20.9 | 25.7 | 0.00 | 0.00 | 0.00 | 72 | 1015.1 |
| 20260503182541 | 17 | 245 | 20.9 | 27.4 | 0.00 | 0.00 | 0.00 | 73 | 1015.1 |
| 20260503182039 | 16 | 251 | 20.9 | 27.4 | 0.00 | 0.00 | 0.00 | 75 | 1015.1 |
| 20260503181556 | 16 | 254 | 20.9 | 24.1 | 0.00 | 0.00 | 0.00 | 75 | 1015.1 |
| 20260503181040 | 16 | 249 | 20.9 | 24.1 | 0.00 | 0.00 | 0.00 | 74 | 1015.1 |
| 20260503180540 | 16 | 249 | 20.9 | 24.1 | 0.00 | 0.00 | 0.00 | 76 | 1015.1 |
| 20260503180049 | 16 | 257 | 20.9 | 24.1 | 0.00 | 0.00 | 0.00 | 76 | 1015.2 |
| 20260503175540 | 16 | 251 | 22.5 | 25.7 | 0.00 | 0.00 | 0.00 | 77 | 1015.3 |
| 20260503175040 | 16 | 256 | 22.5 | 25.7 | 0.00 | 0.00 | 0.00 | 78 | 1015.3 |
| 20260503174551 | 15 | 258 | 22.5 | 27.4 | 0.00 | 0.00 | 0.00 | 78 | 1015.2 |
| 20260503174040 | 15 | 255 | 24.1 | 27.4 | 0.00 | 0.00 | 0.00 | 79 | 1015.3 |
| 20260503173538 | 15 | 253 | 24.1 | 29.0 | 0.00 | 0.00 | 0.00 | 79 | 1015.2 |
| 20260503173054 | 15 | 258 | 24.1 | 30.6 | 0.00 | 0.00 | 0.00 | 81 | 1015.2 |
| 20260503172541 | 15 | 254 | 25.7 | 30.6 | 0.00 | 0.00 | 0.00 | 80 | 1015.2 |
| 20260503172040 | 15 | 252 | 27.4 | 30.6 | 0.00 | 0.00 | 0.00 | 81 | 1015.3 |
| 20260503171547 | 15 | 254 | 27.4 | 30.6 | 0.00 | 0.00 | 0.00 | 81 | 1015.3 |
| 20260503171039 | 15 | 252 | 22.5 | 27.4 | 0.00 | 0.00 | 0.00 | 80 | 1015.4 |
| 20260503170540 | 15 | 253 | 17.7 | 20.9 | 0.00 | 0.00 | 0.00 | 80 | 1015.4 |
| 20260503150539 | 15 | 247 | 16.1 | 20.9 | 0.00 | 0.00 | 0.00 | 77 | 1016.0 |
| 20260503131044 | 13 | 231 | 8.0 | 25.7 | 0.00 | 0.00 | 0.00 | 73 | 1015.5 |
| 20260503130542 | 13 | 231 | 14.5 | 25.7 | 0.00 | 0.00 | 0.00 | 75 | 1015.5 |
| 20260503110540 | 12 | 0 | 0.0 | 4.8 | 0.00 | 0.00 | 0.00 | 82 | 1015.4 |
| 20260503081550 | 13 | 259 | 1.6 | 6.4 | 0.00 | 0.00 | 0.00 | 81 | 1015.4 |
| 20260503081036 | 13 | 259 | 3.2 | 6.4 | 0.00 | 0.00 | 0.00 | 82 | 1015.5 |
| 20260503080539 | 13 | 259 | 3.2 | 4.8 | 0.00 | 0.00 | 0.00 | 82 | 1015.4 |
| 20260503072537 | 14 | 0 | 0.0 | 0.0 | 0.00 | 0.00 | 0.00 | 83 | 1015.2 |
| 20260503072037 | 14 | 0 | 0.0 | 1.6 | 0.00 | 0.00 | 0.00 | 82 | 1015.1 |
| 20260503071555 | 14 | 0 | 0.0 | 3.2 | 0.00 | 0.00 | 0.00 | 81 | 1015.1 |
| 20260503071036 | 14 | 0 | 0.0 | 3.2 | 0.00 | 0.00 | 0.00 | 80 | 1015.0 |
| 20260503070536 | 15 | 0 | 0.0 | 6.4 | 0.00 | 0.00 | 0.00 | 80 | 1015.0 |
| 20260503055036 | 16 | 256 | 4.8 | 19.3 | 0.00 | 0.00 | 0.00 | 76 | 1014.6 |
| 20260503054549 | 16 | 239 | 9.7 | 19.3 | 0.00 | 0.00 | 0.00 | 76 | 1014.5 |
| 20260503054037 | 16 | 229 | 9.7 | 19.3 | 0.00 | 0.00 | 0.00 | 76 | 1014.5 |
| 20260503053536 | 16 | 278 | 4.8 | 12.9 | 0.00 | 0.00 | 0.00 | 76 | 1014.5 |
| 20260503053047 | 16 | 195 | 1.6 | 8.0 | 0.00 | 0.00 | 0.00 | 75 | 1014.5 |
| 20260503052537 | 16 | 229 | 3.2 | 8.0 | 0.00 | 0.00 | 0.00 | 76 | 1014.5 |
| 20260503052040 | 16 | 0 | 0.0 | 3.2 | 0.00 | 0.00 | 0.00 | 76 | 1014.5 |
| 20260503051550 | 16 | 255 | 0.0 | 3.2 | 0.00 | 0.00 | 0.00 | 76 | 1014.5 |
| 20260503051036 | 16 | 254 | 0.0 | 3.2 | 0.00 | 0.00 | 0.00 | 75 | 1014.5 |
| 20260503050538 | 16 | 0 | 0.0 | 1.6 | 0.00 | 0.00 | 0.00 | 75 | 1014.5 |
| 20260503050047 | 16 | 0 | 0.0 | 3.2 | 0.00 | 0.00 | 0.00 | 74 | 1014.5 |
| 20260503045539 | 16 | 251 | 0.0 | 4.8 | 0.00 | 0.00 | 0.00 | 73 | 1014.3 |
| 20260503045039 | 16 | 0 | 1.6 | 8.0 | 0.00 | 0.00 | 0.00 | 74 | 1014.4 |
| 20260503044545 | 16 | 250 | 3.2 | 12.9 | 0.00 | 0.00 | 0.00 | 74 | 1014.3 |
| 20260503044037 | 17 | 251 | 6.4 | 14.5 | 0.00 | 0.00 | 0.00 | 76 | 1014.3 |
| 20260503043537 | 17 | 250 | 6.4 | 17.7 | 0.00 | 0.00 | 0.00 | 74 | 1014.3 |
| 20260503043055 | 17 | 247 | 9.7 | 17.7 | 0.00 | 0.00 | 0.00 | 73 | 1014.3 |
| 20260503042537 | 17 | 236 | 16.1 | 17.7 | 0.00 | 0.00 | 0.00 | 71 | 1014.3 |
| 20260503042037 | 17 | 243 | 9.7 | 16.1 | 0.00 | 0.00 | 0.00 | 70 | 1014.2 |
| 20260503041622 | 17 | 252 | 6.4 | 20.9 | 0.00 | 0.00 | 0.00 | 68 | 1014.1 |
| 20260503041038 | 17 | 224 | 8.0 | 20.9 | 0.00 | 0.00 | 0.00 | 69 | 1014.1 |
| 20260503040537 | 17 | 243 | 17.7 | 20.9 | 0.00 | 0.00 | 0.00 | 68 | 1014.1 |
| 20260503040049 | 18 | 245 | 17.7 | 22.5 | 0.00 | 0.00 | 0.00 | 68 | 1014.1 |
| 20260503035536 | 18 | 244 | 19.3 | 22.5 | 0.00 | 0.00 | 0.00 | 66 | 1014.0 |
| 20260503035036 | 18 | 236 | 14.5 | 22.5 | 0.00 | 0.00 | 0.00 | 65 | 1014.0 |
| 20260503034550 | 18 | 241 | 19.3 | 22.5 | 0.00 | 0.00 | 0.00 | 65 | 1013.9 |
| 20260503034038 | 19 | 253 | 12.9 | 22.5 | 0.00 | 0.00 | 0.00 | 62 | 1013.8 |
| 20260503033543 | 20 | 245 | 12.9 | 25.7 | 0.00 | 0.00 | 0.00 | 59 | 1013.7 |
| 20260503033103 | 20 | 230 | 17.7 | 25.7 | 0.00 | 0.00 | 0.00 | 58 | 1013.7 |
| 20260503032536 | 20 | 222 | 17.7 | 29.0 | 0.00 | 0.00 | 0.00 | 57 | 1013.7 |
| 20260503032040 | 20 | 212 | 16.1 | 35.4 | 0.00 | 0.00 | 0.00 | 56 | 1013.6 |
| 20260503031548 | 20 | 214 | 20.9 | 35.4 | 0.00 | 0.00 | 0.00 | 55 | 1013.7 |
| 20260503031037 | 20 | 233 | 22.5 | 38.6 | 0.00 | 0.00 | 0.00 | 54 | 1013.6 |
| 20260503030536 | 20 | 243 | 24.1 | 38.6 | 0.00 | 0.00 | 0.00 | 53 | 1013.6 |
| 20260503030051 | 20 | 224 | 25.7 | 40.2 | 0.00 | 0.00 | 0.00 | 53 | 1013.6 |
| 20260503025536 | 20 | 185 | 27.4 | 40.2 | 0.00 | 0.00 | 0.00 | 52 | 1013.6 |
| 20260503025037 | 20 | 229 | 27.4 | 41.8 | 0.00 | 0.00 | 0.00 | 52 | 1013.5 |
| 20260503024554 | 21 | 222 | 27.4 | 41.8 | 0.00 | 0.00 | 0.00 | 52 | 1013.5 |
| 20260503024037 | 21 | 229 | 25.7 | 41.8 | 0.00 | 0.00 | 0.00 | 51 | 1013.5 |
| 20260503023536 | 21 | 228 | 24.1 | 41.8 | 0.00 | 0.00 | 0.00 | 51 | 1013.6 |
| 20260503023058 | 21 | 241 | 27.4 | 45.1 | 0.00 | 0.00 | 0.00 | 51 | 1013.5 |
| 20260503022536 | 21 | 236 | 25.7 | 48.3 | 0.00 | 0.00 | 0.00 | 52 | 1013.4 |
| 20260503022037 | 21 | 222 | 29.0 | 48.3 | 0.00 | 0.00 | 0.00 | 51 | 1013.5 |
| 20260503021551 | 21 | 241 | 29.0 | 49.9 | 0.00 | 0.00 | 0.00 | 51 | 1013.5 |
| 20260503021036 | 21 | 233 | 32.2 | 45.1 | 0.00 | 0.00 | 0.00 | 51 | 1013.5 |
| 20260503020536 | 21 | 218 | 32.2 | 48.3 | 0.00 | 0.00 | 0.00 | 50 | 1013.5 |
| 20260503020045 | 21 | 238 | 32.2 | 48.3 | 0.00 | 0.00 | 0.00 | 51 | 1013.5 |
| 20260503015539 | 21 | 224 | 25.7 | 48.3 | 0.00 | 0.00 | 0.00 | 51 | 1013.7 |
| 20260503015037 | 21 | 229 | 37.0 | 48.3 | 0.00 | 0.00 | 0.00 | 51 | 1013.7 |
| 20260503014548 | 21 | 232 | 33.8 | 48.3 | 0.00 | 0.00 | 0.00 | 50 | 1013.8 |
| 20260503014042 | 21 | 237 | 32.2 | 49.9 | 0.00 | 0.00 | 0.00 | 50 | 1013.8 |
| 20260503013541 | 21 | 220 | 29.0 | 49.9 | 0.00 | 0.00 | 0.00 | 49 | 1013.7 |
| 20260503013049 | 21 | 226 | 25.7 | 49.9 | 0.00 | 0.00 | 0.00 | 50 | 1013.8 |
| 20260503012537 | 21 | 219 | 33.8 | 49.9 | 0.00 | 0.00 | 0.00 | 50 | 1013.9 |
| 20260503012037 | 21 | 243 | 30.6 | 51.5 | 0.00 | 0.00 | 0.00 | 51 | 1013.9 |
| 20260503011601 | 21 | 233 | 35.4 | 51.5 | 0.00 | 0.00 | 0.00 | 49 | 1013.9 |
| 20260503011038 | 21 | 231 | 29.0 | 49.9 | 0.00 | 0.00 | 0.00 | 49 | 1014.0 |
| 20260503010536 | 21 | 256 | 32.2 | 49.9 | 0.00 | 0.00 | 0.00 | 50 | 1013.9 |
| 20260503010055 | 21 | 247 | 27.4 | 48.3 | 0.00 | 0.00 | 0.00 | 51 | 1014.0 |
| 20260503005543 | 21 | 233 | 30.6 | 48.3 | 0.00 | 0.00 | 0.00 | 52 | 1013.9 |
| 20260503005039 | 20 | 221 | 32.2 | 46.7 | 0.00 | 0.00 | 0.00 | 52 | 1014.0 |
| 20260503004546 | 20 | 234 | 30.6 | 45.1 | 0.00 | 0.00 | 0.00 | 54 | 1014.0 |
| 20260503004040 | 20 | 211 | 32.2 | 56.3 | 0.00 | 0.00 | 0.00 | 55 | 1014.0 |
| 20260503003541 | 20 | 241 | 33.8 | 56.3 | 0.00 | 0.00 | 0.00 | 55 | 1014.0 |
| 20260503003059 | 20 | 231 | 33.8 | 53.1 | 0.00 | 0.00 | 0.00 | 55 | 1014.1 |
| 20260503002540 | 20 | 199 | 30.6 | 53.1 | 0.00 | 0.00 | 0.00 | 53 | 1014.2 |
| 20260503002040 | 20 | 209 | 30.6 | 51.5 | 0.00 | 0.00 | 0.00 | 53 | 1014.1 |
| 20260503001546 | 20 | 235 | 29.0 | 41.8 | 0.00 | 0.00 | 0.00 | 54 | 1014.2 |
| 20260503001039 | 20 | 229 | 27.4 | 46.7 | 0.00 | 0.00 | 0.00 | 54 | 1014.4 |
| 20260503000540 | 20 | 246 | 29.0 | 46.7 | 0.00 | 0.00 | 0.00 | 54 | 1014.5 |
| 20260503000100 | 20 | 249 | 32.2 | 49.9 | 0.00 | 0.00 | 0.00 | 54 | 1014.5 |
| 20260502235537 | 20 | 204 | 30.6 | 49.9 | 0.00 | 0.00 | 0.00 | 56 | 1014.6 |
| 20260502235036 | 20 | 243 | 27.4 | 48.3 | 0.00 | 0.00 | 0.00 | 59 | 1014.7 |
| 20260502234546 | 19 | 243 | 33.8 | 48.3 | 0.00 | 0.00 | 0.00 | 59 | 1014.8 |
| 20260502234040 | 19 | 218 | 30.6 | 49.9 | 0.00 | 0.00 | 0.00 | 61 | 1014.9 |
| 20260502233536 | 19 | 229 | 32.2 | 49.9 | 0.00 | 0.00 | 0.00 | 62 | 1015.0 |
| 20260502233050 | 19 | 241 | 35.4 | 49.9 | 0.00 | 0.00 | 0.00 | 63 | 1015.1 |
| 20260502232536 | 19 | 236 | 33.8 | 53.1 | 0.00 | 0.00 | 0.00 | 62 | 1015.1 |
| 20260502232036 | 19 | 214 | 30.6 | 53.1 | 0.00 | 0.00 | 0.00 | 62 | 1015.1 |
| 20260502231549 | 19 | 220 | 30.6 | 46.7 | 0.00 | 0.00 | 0.00 | 61 | 1015.1 |
| 20260502231036 | 19 | 239 | 37.0 | 46.7 | 0.00 | 0.00 | 0.00 | 60 | 1015.2 |
| 20260502230539 | 19 | 239 | 33.8 | 46.7 | 0.00 | 0.00 | 0.00 | 60 | 1015.2 |
| 20260502230052 | 19 | 235 | 30.6 | 46.7 | 0.00 | 0.00 | 0.00 | 59 | 1015.3 |
| 20260502225539 | 20 | 246 | 33.8 | 46.7 | 0.00 | 0.00 | 0.00 | 58 | 1015.4 |
| 20260502225039 | 20 | 226 | 33.8 | 46.7 | 0.00 | 0.00 | 0.00 | 56 | 1015.4 |
| 20260502224554 | 19 | 245 | 29.0 | 46.7 | 0.00 | 0.00 | 0.00 | 59 | 1015.5 |
| 20260502224040 | 19 | 241 | 30.6 | 48.3 | 0.00 | 0.00 | 0.00 | 59 | 1015.6 |
| 20260502223538 | 19 | 222 | 35.4 | 48.3 | 0.00 | 0.00 | 0.00 | 61 | 1015.6 |
| 20260502223059 | 18 | 226 | 33.8 | 43.5 | 0.00 | 0.00 | 0.00 | 62 | 1015.7 |
| 20260502222538 | 19 | 233 | 25.7 | 40.2 | 0.00 | 0.00 | 0.00 | 63 | 1015.8 |
| 20260502222041 | 18 | 222 | 32.2 | 45.1 | 0.00 | 0.00 | 0.00 | 65 | 1015.9 |
| 20260502221548 | 18 | 233 | 32.2 | 45.1 | 0.00 | 0.00 | 0.00 | 65 | 1015.9 |
| 20260502221040 | 18 | 235 | 33.8 | 46.7 | 0.00 | 0.00 | 0.00 | 65 | 1015.9 |
| 20260502220538 | 18 | 230 | 30.6 | 46.7 | 0.00 | 0.00 | 0.00 | 67 | 1016.0 |
| 20260502220048 | 18 | 247 | 30.6 | 45.1 | 0.00 | 0.00 | 0.00 | 67 | 1016.1 |
| 20260502215538 | 17 | 246 | 30.6 | 41.8 | 0.00 | 0.00 | 0.00 | 68 | 1016.2 |
| 20260502215038 | 17 | 253 | 27.4 | 40.2 | 0.00 | 0.00 | 0.00 | 69 | 1016.4 |
| 20260502214544 | 17 | 245 | 27.4 | 40.2 | 0.00 | 0.00 | 0.00 | 70 | 1016.3 |
| 20260502214038 | 17 | 249 | 30.6 | 40.2 | 0.00 | 0.00 | 0.00 | 70 | 1016.4 |
| 20260502213538 | 17 | 238 | 29.0 | 38.6 | 0.00 | 0.00 | 0.00 | 72 | 1016.6 |
| 20260502213043 | 17 | 229 | 30.6 | 38.6 | 0.00 | 0.00 | 0.00 | 73 | 1016.7 |
| 20260502212538 | 16 | 241 | 24.1 | 38.6 | 0.00 | 0.00 | 0.00 | 73 | 1016.7 |
| 20260502212038 | 16 | 234 | 24.1 | 37.0 | 0.00 | 0.00 | 0.00 | 75 | 1016.8 |
| 20260502211551 | 16 | 232 | 24.1 | 37.0 | 0.00 | 0.00 | 0.00 | 74 | 1017.0 |
| 20260502211037 | 16 | 238 | 25.7 | 37.0 | 0.00 | 0.00 | 0.00 | 75 | 1017.0 |
| 20260502210537 | 16 | 233 | 24.1 | 37.0 | 0.00 | 0.00 | 0.00 | 78 | 1017.2 |
| 20260502210047 | 16 | 246 | 30.6 | 37.0 | 0.00 | 0.00 | 0.00 | 78 | 1017.1 |
| 20260502205537 | 15 | 242 | 27.4 | 38.6 | 0.00 | 0.00 | 0.00 | 80 | 1017.2 |
| 20260502205038 | 15 | 245 | 30.6 | 38.6 | 0.00 | 0.00 | 0.00 | 78 | 1017.2 |
| 20260502204548 | 16 | 223 | 27.4 | 37.0 | 0.00 | 0.00 | 0.00 | 78 | 1017.4 |
| 20260502204037 | 16 | 249 | 22.5 | 37.0 | 0.00 | 0.00 | 0.00 | 79 | 1017.4 |
| 20260502203538 | 15 | 237 | 29.0 | 37.0 | 0.00 | 0.00 | 0.00 | 79 | 1017.5 |
| 20260502203047 | 15 | 231 | 29.0 | 37.0 | 0.00 | 0.00 | 0.00 | 79 | 1017.6 |
| 20260502202538 | 15 | 237 | 25.7 | 33.8 | 0.00 | 0.00 | 0.00 | 79 | 1017.7 |
| 20260502202038 | 15 | 243 | 27.4 | 35.4 | 0.00 | 0.00 | 0.00 | 78 | 1017.7 |
| 20260502201544 | 16 | 233 | 27.4 | 35.4 | 0.00 | 0.00 | 0.00 | 79 | 1017.7 |
| 20260502201038 | 15 | 243 | 29.0 | 37.0 | 0.00 | 0.00 | 0.00 | 79 | 1017.7 |